sensor_id;sensor_type;location;lat;lon;timestamp;pressure;altitude;pressure_sealevel;temperature;humidity
46944;BME280;32678;43.852;25.952;2022-10-31T00:00:06;101474.75;;;16.77;58.28
46944;BME280;32678;43.852;25.952;2022-10-31T00:05:07;101469.03;;;16.86;57.95
46944;BME280;32678;43.852;25.952;2022-10-31T00:10:04;101472.06;;;16.78;58.02
46944;BME280;32678;43.852;25.952;2022-10-31T00:15:04;101471.16;;;16.97;57.69
46944;BME280;32678;43.852;25.952;2022-10-31T00:20:00;101464.09;;;16.97;57.19
46944;BME280;32678;43.852;25.952;2022-10-31T00:25:00;101468.13;;;16.68;57.72
46944;BME280;32678;43.852;25.952;2022-10-31T00:29:57;101478.56;;;16.90;57.20
46944;BME280;32678;43.852;25.952;2022-10-31T00:34:53;101476.03;;;16.50;58.60
46944;BME280;32678;43.852;25.952;2022-10-31T00:39:52;101479.41;;;16.72;57.90
46944;BME280;32678;43.852;25.952;2022-10-31T00:44:50;101483.56;;;16.77;58.00
46944;BME280;32678;43.852;25.952;2022-10-31T00:49:47;101477.72;;;16.89;57.59
46944;BME280;32678;43.852;25.952;2022-10-31T00:54:47;101484.94;;;16.67;58.39
46944;BME280;32678;43.852;25.952;2022-10-31T00:59:43;101480.44;;;16.69;58.36
46944;BME280;32678;43.852;25.952;2022-10-31T01:04:41;101489.25;;;16.70;58.44
46944;BME280;32678;43.852;25.952;2022-10-31T01:09:42;101479.00;;;16.81;57.84
46944;BME280;32678;43.852;25.952;2022-10-31T01:14:42;101477.78;;;16.88;57.62
46944;BME280;32678;43.852;25.952;2022-10-31T01:19:42;101479.13;;;16.78;57.67
46944;BME280;32678;43.852;25.952;2022-10-31T01:24:39;101463.38;;;16.56;58.24
46944;BME280;32678;43.852;25.952;2022-10-31T01:29:37;101465.59;;;16.46;59.05
46944;BME280;32678;43.852;25.952;2022-10-31T01:34:35;101461.66;;;16.55;58.73
46944;BME280;32678;43.852;25.952;2022-10-31T01:39:34;101480.94;;;16.59;59.16
46944;BME280;32678;43.852;25.952;2022-10-31T01:44:51;101490.59;;;16.78;58.58
46944;BME280;32678;43.852;25.952;2022-10-31T01:49:51;101503.19;;;16.73;58.98
46944;BME280;32678;43.852;25.952;2022-10-31T01:55:00;101508.44;;;16.16;60.86
46944;BME280;32678;43.852;25.952;2022-10-31T02:00:03;101519.53;;;16.24;61.26
46944;BME280;32678;43.852;25.952;2022-10-31T02:05:14;101516.00;;;16.43;60.34
46944;BME280;32678;43.852;25.952;2022-10-31T02:10:14;101519.91;;;16.55;60.79
46944;BME280;32678;43.852;25.952;2022-10-31T02:15:11;101517.03;;;16.41;61.56
46944;BME280;32678;43.852;25.952;2022-10-31T02:20:13;101524.16;;;16.78;60.00
46944;BME280;32678;43.852;25.952;2022-10-31T02:25:16;101532.91;;;16.41;61.41
46944;BME280;32678;43.852;25.952;2022-10-31T02:30:18;101531.41;;;16.54;60.89
46944;BME280;32678;43.852;25.952;2022-10-31T02:35:17;101532.56;;;16.28;61.94
46944;BME280;32678;43.852;25.952;2022-10-31T02:40:21;101530.16;;;16.63;61.15
46944;BME280;32678;43.852;25.952;2022-10-31T02:45:37;101539.34;;;16.54;60.47
46944;BME280;32678;43.852;25.952;2022-10-31T02:50:39;101534.78;;;16.58;59.79
46944;BME280;32678;43.852;25.952;2022-10-31T02:55:44;101539.19;;;16.18;60.93
46944;BME280;32678;43.852;25.952;2022-10-31T03:00:46;101541.50;;;16.26;60.18
46944;BME280;32678;43.852;25.952;2022-10-31T03:05:52;101553.28;;;16.19;60.22
46944;BME280;32678;43.852;25.952;2022-10-31T03:10:53;101566.91;;;16.30;59.88
46944;BME280;32678;43.852;25.952;2022-10-31T03:15:53;101563.59;;;16.04;61.40
46944;BME280;32678;43.852;25.952;2022-10-31T03:20:54;101580.41;;;16.24;61.63
46944;BME280;32678;43.852;25.952;2022-10-31T03:25:52;101580.00;;;16.13;61.49
46944;BME280;32678;43.852;25.952;2022-10-31T03:30:54;101591.78;;;16.06;61.54
46944;BME280;32678;43.852;25.952;2022-10-31T03:35:55;101593.78;;;16.21;60.24
46944;BME280;32678;43.852;25.952;2022-10-31T03:40:55;101592.22;;;15.95;61.08
46944;BME280;32678;43.852;25.952;2022-10-31T03:45:55;101598.66;;;16.30;60.39
46944;BME280;32678;43.852;25.952;2022-10-31T03:50:54;101592.31;;;16.34;59.21
46944;BME280;32678;43.852;25.952;2022-10-31T03:55:56;101596.75;;;15.93;60.08
46944;BME280;32678;43.852;25.952;2022-10-31T04:00:54;101592.56;;;15.66;60.85
46944;BME280;32678;43.852;25.952;2022-10-31T04:05:55;101602.06;;;15.48;62.06
46944;BME280;32678;43.852;25.952;2022-10-31T04:16:12;101611.44;;;15.56;61.91
46944;BME280;32678;43.852;25.952;2022-10-31T04:21:13;101614.22;;;15.30;63.05
46944;BME280;32678;43.852;25.952;2022-10-31T04:26:10;101615.53;;;15.42;63.18
46944;BME280;32678;43.852;25.952;2022-10-31T04:31:13;101603.03;;;15.00;64.04
46944;BME280;32678;43.852;25.952;2022-10-31T04:36:17;101615.22;;;15.04;64.51
46944;BME280;32678;43.852;25.952;2022-10-31T04:41:15;101615.47;;;15.20;63.99
46944;BME280;32678;43.852;25.952;2022-10-31T04:46:22;101615.72;;;14.91;64.88
46944;BME280;32678;43.852;25.952;2022-10-31T04:51:19;101624.34;;;15.19;64.05
46944;BME280;32678;43.852;25.952;2022-10-31T04:56:17;101628.53;;;15.01;64.71
46944;BME280;32678;43.852;25.952;2022-10-31T05:01:16;101644.88;;;15.11;64.82
46944;BME280;32678;43.852;25.952;2022-10-31T05:06:14;101648.53;;;15.08;64.57
46944;BME280;32678;43.852;25.952;2022-10-31T05:11:15;101642.03;;;14.94;65.19
46944;BME280;32678;43.852;25.952;2022-10-31T05:16:17;101635.16;;;14.90;65.61
46944;BME280;32678;43.852;25.952;2022-10-31T05:21:32;101644.69;;;14.69;66.01
46944;BME280;32678;43.852;25.952;2022-10-31T05:26:32;101649.50;;;14.58;66.94
46944;BME280;32678;43.852;25.952;2022-10-31T05:31:32;101659.34;;;14.53;66.80
46944;BME280;32678;43.852;25.952;2022-10-31T05:36:39;101655.75;;;14.55;66.78
46944;BME280;32678;43.852;25.952;2022-10-31T05:41:45;101661.50;;;14.66;65.92
46944;BME280;32678;43.852;25.952;2022-10-31T05:46:50;101673.63;;;14.72;65.79
46944;BME280;32678;43.852;25.952;2022-10-31T05:51:47;101675.00;;;14.82;65.24
46944;BME280;32678;43.852;25.952;2022-10-31T05:56:47;101684.28;;;14.69;65.35
46944;BME280;32678;43.852;25.952;2022-10-31T06:01:44;101681.13;;;14.84;65.27
46944;BME280;32678;43.852;25.952;2022-10-31T06:07:05;101681.13;;;14.84;65.02
46944;BME280;32678;43.852;25.952;2022-10-31T06:12:03;101690.97;;;14.79;65.59
46944;BME280;32678;43.852;25.952;2022-10-31T06:17:20;101684.13;;;14.73;66.05
46944;BME280;32678;43.852;25.952;2022-10-31T06:22:18;101692.09;;;14.97;65.44
46944;BME280;32678;43.852;25.952;2022-10-31T06:27:16;101705.16;;;15.25;64.04
46944;BME280;32678;43.852;25.952;2022-10-31T06:32:13;101707.84;;;15.46;63.26
46944;BME280;32678;43.852;25.952;2022-10-31T06:37:14;101707.88;;;15.45;63.55
46944;BME280;32678;43.852;25.952;2022-10-31T06:42:16;101708.19;;;15.37;64.00
46944;BME280;32678;43.852;25.952;2022-10-31T06:47:15;101720.47;;;15.63;62.96
46944;BME280;32678;43.852;25.952;2022-10-31T06:52:26;101722.28;;;15.61;62.70
46944;BME280;32678;43.852;25.952;2022-10-31T06:57:23;101726.63;;;15.85;61.80
46944;BME280;32678;43.852;25.952;2022-10-31T07:02:20;101722.06;;;16.11;61.43
46944;BME280;32678;43.852;25.952;2022-10-31T07:07:24;101720.41;;;15.86;62.05
46944;BME280;32678;43.852;25.952;2022-10-31T07:12:21;101718.94;;;16.01;62.29
46944;BME280;32678;43.852;25.952;2022-10-31T07:17:27;101717.38;;;16.39;61.82
46944;BME280;32678;43.852;25.952;2022-10-31T07:22:32;101719.22;;;16.59;61.08
46944;BME280;32678;43.852;25.952;2022-10-31T07:27:36;101714.06;;;16.76;60.42
46944;BME280;32678;43.852;25.952;2022-10-31T07:32:41;101726.22;;;16.60;60.36
46944;BME280;32678;43.852;25.952;2022-10-31T07:37:42;101713.94;;;16.37;61.58
46944;BME280;32678;43.852;25.952;2022-10-31T07:42:41;101733.53;;;16.53;61.74
46944;BME280;32678;43.852;25.952;2022-10-31T07:47:58;101716.31;;;16.43;62.12
46944;BME280;32678;43.852;25.952;2022-10-31T07:53:31;101743.91;;;16.79;60.59
46944;BME280;32678;43.852;25.952;2022-10-31T07:58:53;101746.88;;;16.92;60.15
46944;BME280;32678;43.852;25.952;2022-10-31T08:04:02;101758.75;;;17.04;59.83
46944;BME280;32678;43.852;25.952;2022-10-31T08:09:45;101753.63;;;17.19;59.31
46944;BME280;32678;43.852;25.952;2022-10-31T08:14:50;101749.13;;;17.40;58.48
46944;BME280;32678;43.852;25.952;2022-10-31T08:20:13;101740.56;;;17.54;57.88
46944;BME280;32678;43.852;25.952;2022-10-31T08:25:33;101735.78;;;17.62;56.80
46944;BME280;32678;43.852;25.952;2022-10-31T08:31:04;101737.13;;;17.89;55.86
46944;BME280;32678;43.852;25.952;2022-10-31T08:36:33;101747.47;;;17.95;55.45
46944;BME280;32678;43.852;25.952;2022-10-31T08:41:52;101743.44;;;18.05;55.64
46944;BME280;32678;43.852;25.952;2022-10-31T08:46:49;101744.53;;;18.18;55.49
46944;BME280;32678;43.852;25.952;2022-10-31T08:51:47;101748.28;;;18.50;54.13
46944;BME280;32678;43.852;25.952;2022-10-31T08:56:48;101746.47;;;18.51;54.32
46944;BME280;32678;43.852;25.952;2022-10-31T09:02:18;101751.88;;;18.49;54.59
46944;BME280;32678;43.852;25.952;2022-10-31T09:07:21;101753.09;;;18.61;54.50
46944;BME280;32678;43.852;25.952;2022-10-31T09:12:19;101749.19;;;18.85;53.57
46944;BME280;32678;43.852;25.952;2022-10-31T09:17:34;101739.41;;;18.86;53.82
46944;BME280;32678;43.852;25.952;2022-10-31T09:22:54;101738.56;;;19.18;53.11
46944;BME280;32678;43.852;25.952;2022-10-31T09:27:54;101728.63;;;19.22;53.13
46944;BME280;32678;43.852;25.952;2022-10-31T09:32:54;101728.38;;;19.26;52.87
46944;BME280;32678;43.852;25.952;2022-10-31T09:37:55;101723.09;;;19.42;52.69
46944;BME280;32678;43.852;25.952;2022-10-31T09:42:55;101720.06;;;19.65;52.45
46944;BME280;32678;43.852;25.952;2022-10-31T09:48:09;101723.47;;;19.52;52.34
46944;BME280;32678;43.852;25.952;2022-10-31T09:53:38;101724.69;;;19.62;52.13
46944;BME280;32678;43.852;25.952;2022-10-31T09:58:40;101719.38;;;19.77;51.71
46944;BME280;32678;43.852;25.952;2022-10-31T10:03:39;101714.41;;;20.03;50.84
46944;BME280;32678;43.852;25.952;2022-10-31T10:08:59;101708.81;;;20.07;50.56
46944;BME280;32678;43.852;25.952;2022-10-31T10:14:26;101702.78;;;20.04;50.59
46944;BME280;32678;43.852;25.952;2022-10-31T10:19:34;101702.41;;;20.25;50.17
46944;BME280;32678;43.852;25.952;2022-10-31T10:25:12;101688.22;;;20.25;49.92
46944;BME280;32678;43.852;25.952;2022-10-31T10:30:14;101696.78;;;20.31;49.64
46944;BME280;32678;43.852;25.952;2022-10-31T10:35:17;101695.19;;;20.27;49.84
46944;BME280;32678;43.852;25.952;2022-10-31T10:40:25;101689.22;;;20.54;49.30
46944;BME280;32678;43.852;25.952;2022-10-31T10:45:26;101683.03;;;20.67;49.01
46944;BME280;32678;43.852;25.952;2022-10-31T10:56:39;101677.84;;;20.80;48.10
46944;BME280;32678;43.852;25.952;2022-10-31T11:01:44;101672.25;;;20.99;47.58
46944;BME280;32678;43.852;25.952;2022-10-31T11:06:45;101675.09;;;20.96;47.80
46944;BME280;32678;43.852;25.952;2022-10-31T11:17:29;101655.03;;;21.18;47.44
46944;BME280;32678;43.852;25.952;2022-10-31T11:22:28;101665.69;;;21.33;47.10
46944;BME280;32678;43.852;25.952;2022-10-31T11:27:25;101654.81;;;21.36;46.67
46944;BME280;32678;43.852;25.952;2022-10-31T11:32:24;101646.41;;;21.42;46.75
46944;BME280;32678;43.852;25.952;2022-10-31T11:37:31;101624.09;;;21.57;46.06
46944;BME280;32678;43.852;25.952;2022-10-31T11:42:35;101639.88;;;21.74;45.88
46944;BME280;32678;43.852;25.952;2022-10-31T11:47:33;101631.94;;;21.73;45.46
46944;BME280;32678;43.852;25.952;2022-10-31T11:52:30;101620.03;;;21.78;45.38
46944;BME280;32678;43.852;25.952;2022-10-31T11:57:42;101605.09;;;21.88;45.06
46944;BME280;32678;43.852;25.952;2022-10-31T12:02:45;101610.44;;;21.88;45.16
46944;BME280;32678;43.852;25.952;2022-10-31T12:07:42;101615.84;;;22.01;44.16
46944;BME280;32678;43.852;25.952;2022-10-31T12:18:03;101615.53;;;22.06;44.44
46944;BME280;32678;43.852;25.952;2022-10-31T12:23:15;101594.41;;;22.15;43.65
46944;BME280;32678;43.852;25.952;2022-10-31T12:28:27;101613.22;;;22.26;44.00
46944;BME280;32678;43.852;25.952;2022-10-31T12:33:39;101606.16;;;22.25;44.00
46944;BME280;32678;43.852;25.952;2022-10-31T12:38:49;101605.72;;;22.19;43.65
46944;BME280;32678;43.852;25.952;2022-10-31T12:43:51;101597.84;;;22.30;43.29
46944;BME280;32678;43.852;25.952;2022-10-31T12:48:59;101612.06;;;22.30;43.59
46944;BME280;32678;43.852;25.952;2022-10-31T12:54:09;101611.50;;;22.25;43.42
46944;BME280;32678;43.852;25.952;2022-10-31T12:59:14;101610.78;;;22.36;42.97
46944;BME280;32678;43.852;25.952;2022-10-31T13:04:18;101614.72;;;22.30;43.12
46944;BME280;32678;43.852;25.952;2022-10-31T13:09:19;101607.78;;;22.40;42.71
46944;BME280;32678;43.852;25.952;2022-10-31T13:14:21;101605.13;;;22.40;43.10
46944;BME280;32678;43.852;25.952;2022-10-31T13:19:22;101615.25;;;22.35;43.15
46944;BME280;32678;43.852;25.952;2022-10-31T13:24:23;101614.00;;;22.54;42.72
46944;BME280;32678;43.852;25.952;2022-10-31T13:29:26;101610.78;;;22.36;43.07
46944;BME280;32678;43.852;25.952;2022-10-31T13:34:33;101612.50;;;22.37;43.08
46944;BME280;32678;43.852;25.952;2022-10-31T13:39:43;101610.78;;;22.36;43.63
46944;BME280;32678;43.852;25.952;2022-10-31T13:44:42;101616.13;;;22.36;43.34
46944;BME280;32678;43.852;25.952;2022-10-31T13:49:45;101617.75;;;22.51;42.83
46944;BME280;32678;43.852;25.952;2022-10-31T13:54:46;101611.53;;;22.38;43.46
46944;BME280;32678;43.852;25.952;2022-10-31T13:59:51;101610.47;;;22.40;43.42
46944;BME280;32678;43.852;25.952;2022-10-31T14:04:58;101614.00;;;22.41;43.52
46944;BME280;32678;43.852;25.952;2022-10-31T14:09:58;101610.25;;;22.43;43.36
46944;BME280;32678;43.852;25.952;2022-10-31T14:14:57;101608.66;;;22.41;43.30
46944;BME280;32678;43.852;25.952;2022-10-31T14:19:56;101611.22;;;22.42;43.79
46944;BME280;32678;43.852;25.952;2022-10-31T14:24:55;101616.13;;;22.23;44.22
46944;BME280;32678;43.852;25.952;2022-10-31T14:29:52;101601.22;;;22.19;43.78
46944;BME280;32678;43.852;25.952;2022-10-31T14:34:56;101608.59;;;22.16;43.92
46944;BME280;32678;43.852;25.952;2022-10-31T14:39:57;101602.38;;;22.67;42.59
46944;BME280;32678;43.852;25.952;2022-10-31T14:50:34;101612.28;;;22.27;43.77
46944;BME280;32678;43.852;25.952;2022-10-31T14:55:34;101608.84;;;22.25;43.85
46944;BME280;32678;43.852;25.952;2022-10-31T15:00:38;101607.78;;;22.40;43.04
46944;BME280;32678;43.852;25.952;2022-10-31T15:05:35;101604.47;;;22.37;43.24
46944;BME280;32678;43.852;25.952;2022-10-31T15:10:38;101604.75;;;22.20;43.65
46944;BME280;32678;43.852;25.952;2022-10-31T15:15:37;101597.38;;;21.98;43.97
46944;BME280;32678;43.852;25.952;2022-10-31T15:20:36;101615.97;;;22.12;43.88
46944;BME280;32678;43.852;25.952;2022-10-31T15:25:34;101629.66;;;22.08;43.88
46944;BME280;32678;43.852;25.952;2022-10-31T15:36:16;101624.84;;;21.86;44.44
46944;BME280;32678;43.852;25.952;2022-10-31T15:41:19;101610.81;;;21.70;44.50
46944;BME280;32678;43.852;25.952;2022-10-31T15:46:18;101633.00;;;21.70;44.46
46944;BME280;32678;43.852;25.952;2022-10-31T15:51:18;101635.78;;;21.69;44.73
46944;BME280;32678;43.852;25.952;2022-10-31T15:56:24;101641.81;;;21.58;44.71
46944;BME280;32678;43.852;25.952;2022-10-31T16:01:24;101650.50;;;21.47;44.89
46944;BME280;32678;43.852;25.952;2022-10-31T16:06:25;101649.72;;;21.59;44.62
46944;BME280;32678;43.852;25.952;2022-10-31T16:11:23;101649.72;;;21.45;44.92
46944;BME280;32678;43.852;25.952;2022-10-31T16:16:22;101661.47;;;21.43;44.82
46944;BME280;32678;43.852;25.952;2022-10-31T16:21:37;101666.31;;;21.50;44.48
46944;BME280;32678;43.852;25.952;2022-10-31T16:26:37;101675.41;;;21.34;45.34
46944;BME280;32678;43.852;25.952;2022-10-31T16:31:36;101670.75;;;21.23;45.94
46944;BME280;32678;43.852;25.952;2022-10-31T16:36:33;101675.31;;;21.21;45.69
46944;BME280;32678;43.852;25.952;2022-10-31T16:41:35;101673.19;;;21.26;45.84
46944;BME280;32678;43.852;25.952;2022-10-31T16:46:33;101682.91;;;21.27;45.69
46944;BME280;32678;43.852;25.952;2022-10-31T16:51:30;101679.56;;;21.09;46.69
46944;BME280;32678;43.852;25.952;2022-10-31T16:56:27;101679.88;;;21.19;46.68
46944;BME280;32678;43.852;25.952;2022-10-31T17:01:28;101688.16;;;21.29;46.77
46944;BME280;32678;43.852;25.952;2022-10-31T17:06:28;101696.19;;;21.29;46.84
46944;BME280;32678;43.852;25.952;2022-10-31T17:11:27;101690.28;;;21.24;47.47
46944;BME280;32678;43.852;25.952;2022-10-31T17:16:24;101692.44;;;21.17;47.55
46944;BME280;32678;43.852;25.952;2022-10-31T17:21:29;101704.75;;;21.20;47.87
46944;BME280;32678;43.852;25.952;2022-10-31T17:26:26;101698.25;;;21.09;47.99
46944;BME280;32678;43.852;25.952;2022-10-31T17:31:27;101700.31;;;20.90;48.71
46944;BME280;32678;43.852;25.952;2022-10-31T17:36:26;101697.16;;;20.84;48.72
46944;BME280;32678;43.852;25.952;2022-10-31T17:41:23;101702.78;;;20.93;48.93
46944;BME280;32678;43.852;25.952;2022-10-31T17:46:20;101708.13;;;20.93;48.92
46944;BME280;32678;43.852;25.952;2022-10-31T17:51:20;101709.06;;;20.92;49.18
46944;BME280;32678;43.852;25.952;2022-10-31T17:56:16;101699.53;;;20.74;49.54
46944;BME280;32678;43.852;25.952;2022-10-31T18:01:16;101721.28;;;20.52;50.07
46944;BME280;32678;43.852;25.952;2022-10-31T18:06:15;101720.13;;;20.26;50.55
46944;BME280;32678;43.852;25.952;2022-10-31T18:11:15;101725.13;;;20.01;51.51
46944;BME280;32678;43.852;25.952;2022-10-31T18:16:12;101719.38;;;19.62;52.37
46944;BME280;32678;43.852;25.952;2022-10-31T18:21:14;101725.09;;;19.21;52.95
46944;BME280;32678;43.852;25.952;2022-10-31T18:26:15;101725.22;;;19.35;52.22
46944;BME280;32678;43.852;25.952;2022-10-31T18:31:14;101724.28;;;19.36;52.40
46944;BME280;32678;43.852;25.952;2022-10-31T18:36:11;101730.88;;;19.62;51.89
46944;BME280;32678;43.852;25.952;2022-10-31T18:41:12;101732.97;;;19.88;51.77
46944;BME280;32678;43.852;25.952;2022-10-31T18:46:14;101742.63;;;19.89;51.25
46944;BME280;32678;43.852;25.952;2022-10-31T18:51:13;101736.81;;;19.83;51.51
46944;BME280;32678;43.852;25.952;2022-10-31T18:56:10;101743.50;;;20.06;51.29
46944;BME280;32678;43.852;25.952;2022-10-31T19:01:10;101746.50;;;20.15;50.87
46944;BME280;32678;43.852;25.952;2022-10-31T19:06:10;101750.97;;;20.30;50.85
46944;BME280;32678;43.852;25.952;2022-10-31T19:11:08;101751.28;;;20.40;50.29
46944;BME280;32678;43.852;25.952;2022-10-31T19:16:23;101746.16;;;20.37;50.24
46944;BME280;32678;43.852;25.952;2022-10-31T19:21:24;101759.81;;;20.47;50.21
46944;BME280;32678;43.852;25.952;2022-10-31T19:26:25;101760.94;;;20.43;50.26
46944;BME280;32678;43.852;25.952;2022-10-31T19:31:26;101762.72;;;20.42;50.69
46944;BME280;32678;43.852;25.952;2022-10-31T19:36:25;101764.53;;;20.42;50.35
46944;BME280;32678;43.852;25.952;2022-10-31T19:41:23;101759.56;;;20.36;50.12
46944;BME280;32678;43.852;25.952;2022-10-31T19:46:21;101769.34;;;20.35;50.34
46944;BME280;32678;43.852;25.952;2022-10-31T19:51:43;101769.00;;;20.25;50.30
46944;BME280;32678;43.852;25.952;2022-10-31T19:56:40;101766.84;;;20.16;49.96
46944;BME280;32678;43.852;25.952;2022-10-31T20:01:41;101769.44;;;19.86;50.12
46944;BME280;32678;43.852;25.952;2022-10-31T20:06:40;101771.03;;;19.89;50.20
46944;BME280;32678;43.852;25.952;2022-10-31T20:11:37;101768.31;;;20.06;50.01
46944;BME280;32678;43.852;25.952;2022-10-31T20:16:41;101756.28;;;19.99;49.65
46944;BME280;32678;43.852;25.952;2022-10-31T20:21:38;101777.91;;;20.09;49.46
46944;BME280;32678;43.852;25.952;2022-10-31T20:26:36;101782.75;;;20.02;49.96
46944;BME280;32678;43.852;25.952;2022-10-31T20:31:35;101751.06;;;19.82;50.10
46944;BME280;32678;43.852;25.952;2022-10-31T20:36:41;101780.78;;;20.06;49.69
46944;BME280;32678;43.852;25.952;2022-10-31T20:41:41;101783.94;;;20.12;49.56
46944;BME280;32678;43.852;25.952;2022-10-31T20:46:40;101779.75;;;20.08;49.65
46944;BME280;32678;43.852;25.952;2022-10-31T20:51:37;101770.81;;;19.94;50.06
46944;BME280;32678;43.852;25.952;2022-10-31T20:56:34;101782.66;;;19.88;50.15
46944;BME280;32678;43.852;25.952;2022-10-31T21:01:31;101785.38;;;19.71;50.64
46944;BME280;32678;43.852;25.952;2022-10-31T21:06:33;101784.72;;;19.83;50.80
46944;BME280;32678;43.852;25.952;2022-10-31T21:11:30;101786.31;;;19.70;51.52
46944;BME280;32678;43.852;25.952;2022-10-31T21:16:27;101792.38;;;19.56;54.24
46944;BME280;32678;43.852;25.952;2022-10-31T21:21:25;101788.66;;;19.76;54.73
46944;BME280;32678;43.852;25.952;2022-10-31T21:26:30;101791.06;;;19.80;55.23
46944;BME280;32678;43.852;25.952;2022-10-31T21:31:45;101789.78;;;19.87;55.53
46944;BME280;32678;43.852;25.952;2022-10-31T21:36:44;101791.41;;;19.90;56.27
46944;BME280;32678;43.852;25.952;2022-10-31T21:41:41;101787.19;;;19.86;56.46
46944;BME280;32678;43.852;25.952;2022-10-31T21:46:42;101797.13;;;19.67;56.90
46944;BME280;32678;43.852;25.952;2022-10-31T21:51:42;101799.47;;;19.73;56.92
46944;BME280;32678;43.852;25.952;2022-10-31T21:56:44;101798.78;;;19.69;57.04
46944;BME280;32678;43.852;25.952;2022-10-31T22:01:41;101798.91;;;19.33;54.81
46944;BME280;32678;43.852;25.952;2022-10-31T22:06:40;101814.84;;;18.29;55.84
46944;BME280;32678;43.852;25.952;2022-10-31T22:11:37;101811.28;;;18.11;57.41
46944;BME280;32678;43.852;25.952;2022-10-31T22:16:40;101814.88;;;17.52;58.47
46944;BME280;32678;43.852;25.952;2022-10-31T22:21:40;101814.53;;;17.60;58.20
46944;BME280;32678;43.852;25.952;2022-10-31T22:26:40;101823.81;;;17.89;57.61
46944;BME280;32678;43.852;25.952;2022-10-31T22:31:38;101832.13;;;18.18;56.22
46944;BME280;32678;43.852;25.952;2022-10-31T22:36:36;101837.13;;;18.43;56.49
46944;BME280;32678;43.852;25.952;2022-10-31T22:41:34;101837.50;;;18.54;57.14
46944;BME280;32678;43.852;25.952;2022-10-31T22:46:33;101839.25;;;18.73;57.08
46944;BME280;32678;43.852;25.952;2022-10-31T22:51:32;101839.59;;;18.84;56.70
46944;BME280;32678;43.852;25.952;2022-10-31T22:56:30;101836.63;;;19.07;56.48
46944;BME280;32678;43.852;25.952;2022-10-31T23:01:28;101835.69;;;19.08;56.26
46944;BME280;32678;43.852;25.952;2022-10-31T23:06:29;101833.56;;;18.44;57.07
46944;BME280;32678;43.852;25.952;2022-10-31T23:11:27;101841.28;;;18.49;57.32
46944;BME280;32678;43.852;25.952;2022-10-31T23:16:29;101844.72;;;18.70;56.56
46944;BME280;32678;43.852;25.952;2022-10-31T23:21:26;101846.09;;;18.95;56.09
46944;BME280;32678;43.852;25.952;2022-10-31T23:26:52;101853.91;;;18.98;55.96
46944;BME280;32678;43.852;25.952;2022-10-31T23:32:03;101854.44;;;18.88;56.46
46944;BME280;32678;43.852;25.952;2022-10-31T23:37:08;101847.63;;;18.82;57.35
46944;BME280;32678;43.852;25.952;2022-10-31T23:42:09;101833.34;;;18.85;57.03
46944;BME280;32678;43.852;25.952;2022-10-31T23:47:05;101856.03;;;18.56;58.12
46944;BME280;32678;43.852;25.952;2022-10-31T23:52:04;101858.25;;;18.65;58.33
46944;BME280;32678;43.852;25.952;2022-10-31T23:57:01;101849.88;;;18.55;58.72
